createdAt,value
2023-01-23T00:01:36.609Z,103576.31
2023-01-23T00:04:05.534Z,103578.13
2023-01-23T00:06:33.523Z,103583.56
2023-01-23T00:09:01.655Z,103579.28
2023-01-23T00:11:31.054Z,103571.25
2023-01-23T00:14:02.004Z,103572.25
2023-01-23T00:16:32.461Z,103563.47
2023-01-23T00:19:00.531Z,103558.34
2023-01-23T00:21:30.171Z,103554.78
2023-01-23T00:23:59.816Z,103557.50
2023-01-23T00:26:30.355Z,103537.56
2023-01-23T00:28:58.441Z,103569.25
2023-01-23T00:31:30.650Z,103573.78
2023-01-23T00:34:00.592Z,103579.19
2023-01-23T00:36:31.393Z,103572.81
2023-01-23T00:38:59.479Z,103574.59
2023-01-23T00:41:27.756Z,103573.63
2023-01-23T00:43:55.686Z,103567.41
2023-01-23T00:46:24.097Z,103565.88
2023-01-23T00:48:53.697Z,103562.38
2023-01-23T00:51:22.053Z,103574.78
2023-01-23T00:53:50.161Z,103570.09
2023-01-23T00:56:18.277Z,103570.81
2023-01-23T00:58:46.291Z,103562.66
2023-01-23T01:01:15.170Z,103563.66
2023-01-23T01:03:43.671Z,103585.44
2023-01-23T01:06:13.429Z,103588.94
2023-01-23T01:08:41.492Z,103581.19
2023-01-23T01:11:10.134Z,103591.72
2023-01-23T01:13:38.331Z,103582.75
2023-01-23T01:16:07.639Z,103579.28
2023-01-23T01:18:37.260Z,103578.38
2023-01-23T01:21:08.222Z,103571.13
2023-01-23T01:23:38.657Z,103549.59
2023-01-23T01:26:07.652Z,103550.38
2023-01-23T01:28:36.689Z,103551.44
2023-01-23T01:31:07.763Z,103552.31
2023-01-23T01:33:36.438Z,103539.69
2023-01-23T01:36:05.129Z,103547.66
2023-01-23T01:38:33.120Z,103557.56
2023-01-23T01:41:02.461Z,103569.31
2023-01-23T01:43:30.438Z,103573.06
2023-01-23T01:46:10.269Z,103567.75
2023-01-23T01:48:46.021Z,103566.94
2023-01-23T01:51:20.960Z,103566.16
2023-01-23T01:53:52.330Z,103567.28
2023-01-23T01:56:22.224Z,103558.34
2023-01-23T01:58:52.919Z,103555.66
2023-01-23T02:01:21.308Z,103561.19
2023-01-23T02:03:52.458Z,103557.78
2023-01-23T02:06:21.255Z,103531.53
2023-01-23T02:08:57.042Z,103555.22
2023-01-23T02:11:26.637Z,103552.63
2023-01-23T02:13:56.712Z,103540.16
2023-01-23T02:16:29.398Z,103539.38
2023-01-23T02:19:01.764Z,103547.47
2023-01-23T02:21:30.374Z,103538.59
2023-01-23T02:24:13.422Z,103549.03
2023-01-23T02:26:45.969Z,103558.09
2023-01-23T02:29:16.291Z,103552.84
2023-01-23T02:31:53.714Z,103542.94
2023-01-23T02:34:26.000Z,103542.75
2023-01-23T02:36:58.751Z,103544.25
2023-01-23T02:39:27.619Z,103535.97
2023-01-23T02:42:00.675Z,103534.03
2023-01-23T02:44:46.658Z,103532.34
2023-01-23T02:47:16.498Z,103534.16
2023-01-23T02:49:44.969Z,103535.91
2023-01-23T02:52:12.994Z,103535.22
2023-01-23T02:54:41.078Z,103535.16
2023-01-23T02:57:11.109Z,103507.94
2023-01-23T02:59:57.260Z,103536.91
2023-01-23T03:02:27.034Z,103522.56
2023-01-23T03:04:55.253Z,103515.28
2023-01-23T03:07:23.274Z,103520.59
2023-01-23T03:09:51.463Z,103510.69
2023-01-23T03:12:20.830Z,103519.75
2023-01-23T03:14:53.871Z,103522.75
2023-01-23T03:17:22.294Z,103498.09
2023-01-23T03:19:50.458Z,103515.78
2023-01-23T03:22:18.673Z,103515.00
2023-01-23T03:24:46.714Z,103514.88
2023-01-23T03:27:14.711Z,103505.03
2023-01-23T03:30:05.624Z,103506.75
2023-01-23T03:32:33.755Z,103498.88
2023-01-23T03:35:01.954Z,103490.88
2023-01-23T03:37:30.266Z,103500.88
2023-01-23T03:40:16.095Z,103503.56
2023-01-23T03:42:44.568Z,103503.56
2023-01-23T03:45:16.750Z,103507.06
2023-01-23T03:47:44.839Z,103499.88
2023-01-23T03:50:12.846Z,103509.69
2023-01-23T03:52:41.234Z,103505.25
2023-01-23T03:55:10.758Z,103512.38
2023-01-23T03:57:39.595Z,103503.47
2023-01-23T04:00:21.781Z,103508.75
2023-01-23T04:02:57.109Z,103507.94
2023-01-23T04:05:25.193Z,103510.50
2023-01-23T04:07:53.163Z,103519.25
2023-01-23T04:10:21.429Z,103507.59
2023-01-23T04:12:54.551Z,103517.50
2023-01-23T04:15:24.009Z,103522.88
2023-01-23T04:17:54.340Z,103531.78
2023-01-23T04:20:24.692Z,103532.47
2023-01-23T04:22:53.597Z,103545.03
2023-01-23T04:25:21.891Z,103535.16
2023-01-23T04:27:49.917Z,103537.88
2023-01-23T04:30:18.799Z,103535.28
2023-01-23T04:32:48.877Z,103524.63
2023-01-23T04:35:19.202Z,103529.34
2023-01-23T04:37:47.175Z,103531.13
2023-01-23T04:40:15.426Z,103531.00
2023-01-23T04:42:56.691Z,103524.75
2023-01-23T04:45:34.745Z,103512.25
2023-01-23T04:48:23.024Z,103524.97
2023-01-23T04:50:52.015Z,103520.59
2023-01-23T04:53:20.312Z,103522.47
2023-01-23T04:55:54.076Z,103525.13
2023-01-23T04:58:22.181Z,103522.44
2023-01-23T05:00:50.242Z,103524.06
2023-01-23T05:03:24.831Z,103523.16
2023-01-23T05:05:53.328Z,103512.59
2023-01-23T05:08:22.431Z,103517.16
2023-01-23T05:11:01.666Z,103525.28
2023-01-23T05:13:29.655Z,103533.28
2023-01-23T05:15:58.623Z,103535.88
2023-01-23T05:18:28.145Z,103528.50
2023-01-23T05:20:56.886Z,103530.50
2023-01-23T05:23:24.933Z,103534.03
2023-01-23T05:25:54.871Z,103525.34
2023-01-23T05:28:25.150Z,103517.22
2023-01-23T05:30:57.032Z,103517.97
2023-01-23T05:33:41.187Z,103514.59
2023-01-23T05:36:09.310Z,103516.56
2023-01-23T05:38:37.552Z,103521.94
2023-01-23T05:41:05.883Z,103518.38
2023-01-23T05:43:52.993Z,103521.88
2023-01-23T05:46:35.436Z,103525.22
2023-01-23T05:49:05.013Z,103526.84
2023-01-23T05:51:34.001Z,103534.97
2023-01-23T05:54:03.404Z,103526.84
2023-01-23T05:56:31.751Z,103534.00
2023-01-23T05:59:18.069Z,103526.84
2023-01-23T06:01:58.915Z,103522.44
2023-01-23T06:04:48.249Z,103513.78
2023-01-23T06:07:25.281Z,103523.53
2023-01-23T06:09:56.942Z,103528.94
2023-01-23T06:12:24.922Z,103520.06
2023-01-23T06:14:52.922Z,103517.28
2023-01-23T06:17:20.960Z,103524.34
2023-01-23T06:19:50.611Z,103512.81
2023-01-23T06:22:18.941Z,103521.38
2023-01-23T06:25:04.287Z,103524.16
2023-01-23T06:27:33.126Z,103535.03
2023-01-23T06:30:05.488Z,103533.50
2023-01-23T06:32:37.698Z,103517.56
2023-01-23T06:35:09.212Z,103518.50
2023-01-23T06:37:40.671Z,103508.91
2023-01-23T06:40:13.299Z,103520.53
2023-01-23T06:42:45.637Z,103519.84
2023-01-23T06:45:13.661Z,103517.25
2023-01-23T06:47:41.603Z,103520.88
2023-01-23T06:50:12.198Z,103521.63
2023-01-23T06:52:40.672Z,103526.13
2023-01-23T06:55:09.882Z,103500.63
2023-01-23T06:57:38.974Z,103523.38
2023-01-23T07:00:11.284Z,103524.34
2023-01-23T07:02:40.388Z,103530.63
2023-01-23T07:05:08.792Z,103536.75
2023-01-23T07:07:38.252Z,103536.66
2023-01-23T07:10:07.309Z,103539.38
2023-01-23T07:12:35.485Z,103539.56
2023-01-23T07:15:03.514Z,103535.09
2023-01-23T07:17:38.679Z,103552.66
2023-01-23T07:20:07.999Z,103557.78
2023-01-23T07:22:43.091Z,103561.19
2023-01-23T07:25:11.466Z,103554.78
2023-01-23T07:27:39.506Z,103530.13
2023-01-23T07:30:08.880Z,103559.97
2023-01-23T07:32:37.006Z,103569.19
2023-01-23T07:35:05.655Z,103579.16
2023-01-23T07:37:33.786Z,103576.56
2023-01-23T07:40:03.719Z,103569.19
2023-01-23T07:42:31.745Z,103577.19
2023-01-23T07:44:59.732Z,103569.84
2023-01-23T07:47:27.749Z,103561.75
2023-01-23T07:49:55.685Z,103566.97
2023-01-23T07:52:23.698Z,103558.97
2023-01-23T07:54:51.643Z,103567.97
2023-01-23T07:57:21.141Z,103569.72
2023-01-23T07:59:49.213Z,103569.84
2023-01-23T08:02:17.146Z,103590.69
2023-01-23T08:04:45.196Z,103592.59
2023-01-23T08:07:13.379Z,103596.38
2023-01-23T08:09:41.477Z,103592.94
2023-01-23T08:12:09.594Z,103586.84
2023-01-23T08:14:39.306Z,103576.97
2023-01-23T08:17:07.318Z,103571.56
2023-01-23T08:19:35.309Z,103582.22
2023-01-23T08:22:03.281Z,103582.13
2023-01-23T08:24:31.201Z,103581.16
2023-01-23T08:26:59.747Z,103571.31
2023-01-23T08:29:27.805Z,103590.13
2023-01-23T08:31:57.306Z,103583.06
2023-01-23T08:34:25.349Z,103582.31
2023-01-23T08:36:53.397Z,103599.13
2023-01-23T08:39:21.570Z,103584.72
2023-01-23T08:41:49.643Z,103583.38
2023-01-23T08:44:17.940Z,103567.25
2023-01-23T08:46:47.548Z,103567.22
2023-01-23T08:49:19.587Z,103566.34
2023-01-23T08:51:47.620Z,103579.06
2023-01-23T08:54:15.646Z,103571.81
2023-01-23T08:56:43.590Z,103583.44
2023-01-23T08:59:11.509Z,103566.41
2023-01-23T09:01:39.570Z,103564.25
2023-01-23T09:04:07.485Z,103568.63
2023-01-23T09:06:37.274Z,103567.63
2023-01-23T09:09:05.353Z,103572.91
2023-01-23T09:11:33.309Z,103571.09
2023-01-23T09:14:01.326Z,103564.84
2023-01-23T09:16:29.400Z,103566.47
2023-01-23T09:18:57.543Z,103570.03
2023-01-23T09:21:25.494Z,103570.81
2023-01-23T09:23:54.927Z,103566.88
2023-01-23T09:26:22.817Z,103555.81
2023-01-23T09:28:50.695Z,103545.94
2023-01-23T09:31:18.835Z,103544.13
2023-01-23T09:33:46.789Z,103555.72
2023-01-23T09:36:14.747Z,103558.47
2023-01-23T09:38:42.650Z,103558.41
2023-01-23T09:41:20.204Z,103554.72
2023-01-23T09:43:54.960Z,103545.84
2023-01-23T09:46:27.526Z,103546.63
2023-01-23T09:49:00.934Z,103537.75
2023-01-23T09:51:36.550Z,103521.44
2023-01-23T09:54:17.162Z,103519.34
2023-01-23T09:56:50.370Z,103524.50
2023-01-23T09:59:28.982Z,103528.00
2023-01-23T10:01:57.657Z,103537.75
2023-01-23T10:04:25.733Z,103535.88
2023-01-23T10:07:19.463Z,103534.94
2023-01-23T10:10:15.227Z,103524.31
2023-01-23T10:12:54.937Z,103527.19
2023-01-23T10:15:34.433Z,103533.56
2023-01-23T10:18:14.381Z,103540.88
2023-01-23T10:20:52.274Z,103523.25
2023-01-23T10:23:42.713Z,103509.09
2023-01-23T10:26:16.620Z,103512.00
2023-01-23T10:28:48.498Z,103513.97
2023-01-23T10:31:31.808Z,103506.13
2023-01-23T10:34:11.715Z,103470.94
2023-01-23T10:36:54.828Z,103499.84
2023-01-23T10:39:28.005Z,103493.84
2023-01-23T10:42:02.078Z,103494.00
2023-01-23T10:44:31.999Z,103485.19
2023-01-23T10:47:03.763Z,103482.81
2023-01-23T10:49:35.261Z,103472.66
2023-01-23T10:52:03.572Z,103497.50
2023-01-23T10:54:33.314Z,103494.59
2023-01-23T10:57:03.259Z,103492.00
2023-01-23T10:59:36.714Z,103456.81
2023-01-23T11:02:20.203Z,103474.22
2023-01-23T11:04:51.725Z,103464.47
2023-01-23T11:07:21.739Z,103465.53
2023-01-23T11:09:53.608Z,103469.09
2023-01-23T11:12:23.820Z,103461.22
2023-01-23T11:15:11.725Z,103461.44
2023-01-23T11:17:40.567Z,103465.16
2023-01-23T11:20:24.359Z,103464.31
2023-01-23T11:23:03.125Z,103457.25
2023-01-23T11:25:32.699Z,103441.63
2023-01-23T11:28:02.524Z,103460.06
2023-01-23T11:30:39.587Z,103448.63
2023-01-23T11:33:15.509Z,103446.94
2023-01-23T11:36:00.300Z,103434.44
2023-01-23T11:38:37.730Z,103439.00
2023-01-23T11:41:13.108Z,103430.13
2023-01-23T11:43:41.664Z,103426.56
2023-01-23T11:46:30.814Z,103424.69
2023-01-23T11:49:28.289Z,103428.50
2023-01-23T11:52:11.320Z,103422.31
2023-01-23T11:54:52.871Z,103421.50
2023-01-23T11:57:36.725Z,103427.81
2023-01-23T12:00:23.620Z,103428.78
2023-01-23T12:03:24.875Z,103413.69
2023-01-23T12:06:19.273Z,103420.00
2023-01-23T12:08:54.775Z,103407.44
2023-01-23T12:11:25.583Z,103403.84
2023-01-23T12:14:03.525Z,103404.00
2023-01-23T12:16:48.089Z,103414.09
2023-01-23T12:19:30.801Z,103410.31
2023-01-23T12:22:08.148Z,103409.44
2023-01-23T12:24:50.096Z,103406.81
2023-01-23T12:27:26.904Z,103402.50
2023-01-23T12:30:23.968Z,103405.28
2023-01-23T12:33:11.694Z,103390.31
2023-01-23T12:35:52.571Z,103400.16
2023-01-23T12:38:30.435Z,103397.69
2023-01-23T12:41:13.089Z,103393.09
2023-01-23T12:43:48.065Z,103396.00
2023-01-23T12:46:23.445Z,103369.84
2023-01-23T12:48:59.870Z,103388.06
2023-01-23T12:51:37.902Z,103394.09
2023-01-23T12:54:12.911Z,103385.03
2023-01-23T12:56:41.914Z,103379.47
2023-01-23T12:59:19.019Z,103358.84
2023-01-23T13:02:01.904Z,103361.41
2023-01-23T13:04:50.271Z,103364.81
2023-01-23T13:07:41.992Z,103357.44
2023-01-23T13:11:11.330Z,103361.66
2023-01-23T13:13:39.571Z,103367.91
2023-01-23T13:16:13.373Z,103365.91
2023-01-23T13:18:59.658Z,103367.59
2023-01-23T13:21:45.511Z,103371.13
2023-01-23T13:24:50.979Z,103379.16
2023-01-23T13:27:52.935Z,103379.28
2023-01-23T13:30:43.127Z,103377.53
2023-01-23T13:33:55.300Z,103366.78
2023-01-23T13:36:33.130Z,103368.66
2023-01-23T13:39:25.718Z,103363.28
2023-01-23T13:42:45.871Z,103363.22
2023-01-23T13:45:27.074Z,103347.16
2023-01-23T14:21:22.110Z,103300.28
2023-01-23T14:23:53.651Z,103330.97
2023-01-23T14:26:25.774Z,103295.72
2023-01-23T14:28:55.484Z,103279.09
2023-01-23T14:31:27.632Z,103300.88
2023-01-23T14:34:09.809Z,103303.25
2023-01-23T14:36:39.483Z,103299.41
2023-01-23T14:39:07.613Z,103304.88
2023-01-23T14:41:41.597Z,103304.06
2023-01-23T14:44:18.612Z,103294.38
2023-01-23T14:46:51.949Z,103307.59
2023-01-23T14:49:27.066Z,103316.31
2023-01-23T14:52:00.252Z,103312.66
2023-01-23T14:54:32.885Z,103309.03
2023-01-23T14:57:04.537Z,103315.16
2023-01-23T14:59:35.076Z,103329.41
2023-01-23T15:02:23.795Z,103321.22
2023-01-23T15:05:25.138Z,103321.06
2023-01-23T15:07:56.043Z,103328.13
2023-01-23T15:10:26.912Z,103328.84
2023-01-23T15:12:58.473Z,103325.09
2023-01-23T15:15:27.582Z,103324.97
2023-01-23T15:18:00.523Z,103328.31
2023-01-23T15:20:32.279Z,103336.31
2023-01-23T15:23:22.004Z,103313.06
2023-01-23T15:26:00.849Z,103307.69
2023-01-23T15:28:40.442Z,103318.25
2023-01-23T15:31:24.447Z,103310.66
2023-01-23T15:33:54.197Z,103294.28
2023-01-23T15:36:27.897Z,103304.19
2023-01-23T15:38:57.705Z,103293.91
2023-01-23T15:41:39.951Z,103296.13
2023-01-23T15:44:14.907Z,103289.88
2023-01-23T15:46:43.509Z,103292.38
2023-01-23T15:49:24.316Z,103285.81
2023-01-23T15:51:53.109Z,103286.56
2023-01-23T15:54:25.634Z,103280.91
2023-01-23T15:57:05.644Z,103278.84
2023-01-23T15:59:35.245Z,103272.59
2023-01-23T16:02:03.304Z,103267.03
2023-01-23T16:04:32.826Z,103273.22
2023-01-23T16:07:04.437Z,103276.31
2023-01-23T16:09:34.804Z,103286.69
2023-01-23T16:12:02.901Z,103284.00
2023-01-23T16:14:30.928Z,103284.78
2023-01-23T16:17:08.119Z,103278.22
2023-01-23T16:19:45.804Z,103276.78
2023-01-23T16:22:18.079Z,103263.53
2023-01-23T16:24:46.159Z,103277.84
2023-01-23T16:27:19.235Z,103277.41
2023-01-23T16:29:49.599Z,103285.44
2023-01-23T16:32:17.848Z,103283.28
2023-01-23T16:34:47.301Z,103285.47
2023-01-23T16:37:17.285Z,103286.69
2023-01-23T16:39:48.311Z,103293.91
2023-01-23T16:42:22.927Z,103301.25
2023-01-23T16:44:51.751Z,103307.91
2023-01-23T16:47:20.325Z,103307.09
2023-01-23T16:49:53.080Z,103303.72
2023-01-23T16:52:23.403Z,103320.69
2023-01-23T16:54:53.434Z,103314.88
2023-01-23T16:57:22.315Z,103316.50
2023-01-23T16:59:51.047Z,103311.19
2023-01-23T17:02:23.129Z,103307.03
2023-01-23T17:04:52.856Z,103306.69
2023-01-23T17:07:21.279Z,103315.25
2023-01-23T17:09:50.236Z,103315.84
2023-01-23T17:12:22.017Z,103311.09
2023-01-23T17:14:52.618Z,103311.81
2023-01-23T17:17:26.333Z,103309.81
2023-01-23T17:19:56.927Z,103308.78
2023-01-23T17:22:27.280Z,103310.44
2023-01-23T17:24:55.307Z,103303.72
2023-01-23T17:27:23.531Z,103312.38
2023-01-23T17:29:51.522Z,103304.88
2023-01-23T17:32:26.637Z,103299.09
2023-01-23T17:34:56.298Z,103309.38
2023-01-23T17:37:24.828Z,103300.56
2023-01-23T17:39:53.010Z,103304.44
2023-01-23T17:42:21.997Z,103296.38
2023-01-23T17:44:50.582Z,103279.41
2023-01-23T17:47:19.243Z,103297.56
2023-01-23T17:49:51.179Z,103293.22
2023-01-23T17:52:21.744Z,103297.09
2023-01-23T17:54:49.887Z,103292.88
2023-01-23T17:57:17.895Z,103297.47
2023-01-23T17:59:45.893Z,103294.84
2023-01-23T18:02:26.614Z,103287.88
2023-01-23T18:04:55.018Z,103279.94
2023-01-23T18:07:24.308Z,103275.56
2023-01-23T18:09:53.980Z,103283.84
2023-01-23T18:12:30.123Z,103280.28
2023-01-23T18:15:07.428Z,103283.66
2023-01-23T18:17:45.025Z,103282.63
2023-01-23T18:20:18.785Z,103285.38
2023-01-23T18:22:48.987Z,103273.91
2023-01-23T18:25:18.998Z,103270.66
2023-01-23T18:27:50.994Z,103260.03
2023-01-23T18:30:27.019Z,103263.63
2023-01-23T18:33:07.174Z,103271.94
2023-01-23T18:35:58.070Z,103262.31
2023-01-23T18:38:37.608Z,103253.47
2023-01-23T18:41:17.174Z,103256.16
2023-01-23T18:43:51.369Z,103243.69
2023-01-23T18:46:25.275Z,103243.03
2023-01-23T18:48:53.962Z,103249.16
2023-01-23T18:51:32.865Z,103247.47
2023-01-23T18:54:13.305Z,103244.69
2023-01-23T18:56:51.462Z,103230.53
2023-01-23T18:59:23.926Z,103232.34
2023-01-23T19:01:54.864Z,103226.09
2023-01-23T19:04:31.778Z,103221.72
2023-01-23T19:07:00.317Z,103218.31
2023-01-23T19:09:34.538Z,103215.53
2023-01-23T19:12:20.505Z,103187.38
2023-01-23T19:15:07.835Z,103193.22
2023-01-23T19:17:43.931Z,103186.06
2023-01-23T19:20:23.201Z,103181.56
2023-01-23T19:23:02.858Z,103172.59
2023-01-23T19:25:32.630Z,103163.66
2023-01-23T19:28:01.839Z,103155.56
2023-01-23T19:30:30.728Z,103157.47
2023-01-23T19:32:58.688Z,103153.03
2023-01-23T19:35:26.983Z,103144.09
2023-01-23T19:37:55.092Z,103143.72
2023-01-23T19:40:23.115Z,103137.38
2023-01-23T19:43:08.870Z,103136.53
2023-01-23T19:45:41.407Z,103140.38
2023-01-23T19:48:09.768Z,103147.50
2023-01-23T19:50:37.983Z,103143.78
2023-01-23T19:53:06.221Z,103137.59
2023-01-23T19:55:36.257Z,103135.94
2023-01-23T19:58:05.979Z,103151.22
2023-01-23T20:00:36.206Z,103150.50
2023-01-23T20:03:05.398Z,103120.78
2023-01-23T20:05:33.563Z,103107.09
2023-01-23T20:08:01.491Z,103120.81
2023-01-23T20:10:29.660Z,103127.13
2023-01-23T20:12:57.785Z,103125.47
2023-01-23T20:15:27.633Z,103123.81
2023-01-23T20:17:55.874Z,103124.78
2023-01-23T20:20:24.214Z,103114.16
2023-01-23T20:22:52.645Z,103119.53
2023-01-23T20:25:21.279Z,103100.69
2023-01-23T20:27:49.584Z,103102.50
2023-01-23T20:30:20.264Z,103101.56
2023-01-23T20:32:50.113Z,103104.41
2023-01-23T20:35:18.208Z,103098.22
2023-01-23T20:37:46.254Z,103095.44
2023-01-23T20:40:14.564Z,103093.78
2023-01-23T20:42:42.529Z,103088.31
2023-01-23T20:45:11.279Z,103090.22
2023-01-23T20:47:39.417Z,103087.38
2023-01-23T20:50:09.967Z,103087.38
2023-01-23T20:52:55.368Z,103079.41
2023-01-23T20:55:23.604Z,103081.34
2023-01-23T20:58:09.244Z,103074.22
2023-01-23T21:00:37.260Z,103084.19
2023-01-23T21:03:05.346Z,103071.63
2023-01-23T21:05:34.652Z,103059.59
2023-01-23T21:08:02.832Z,103039.06
2023-01-23T21:10:30.905Z,103034.47
2023-01-23T21:12:58.911Z,103029.09
2023-01-23T21:15:27.082Z,103042.41
2023-01-23T21:17:55.022Z,103044.16
2023-01-23T21:20:22.996Z,103039.41
2023-01-23T21:22:52.392Z,103033.94
2023-01-23T21:25:20.769Z,103035.78
2023-01-23T21:27:49.017Z,103039.41
2023-01-23T21:30:17.425Z,103029.53
2023-01-23T21:32:45.446Z,103023.00
2023-01-23T21:35:13.534Z,103026.59
2023-01-23T21:37:43.515Z,103037.50
2023-01-23T21:40:14.450Z,103040.19
2023-01-23T21:42:42.543Z,103029.66
2023-01-23T21:45:11.183Z,103031.34
2023-01-23T21:47:39.205Z,103019.69
2023-01-23T21:50:07.965Z,103016.22
2023-01-23T21:52:36.012Z,103014.25
2023-01-23T21:55:04.077Z,102998.00
2023-01-23T21:57:33.497Z,102996.19
2023-01-23T22:00:18.638Z,102996.34
2023-01-23T22:02:46.677Z,102983.03
2023-01-23T22:05:14.893Z,102968.69
2023-01-23T22:07:43.202Z,102983.03
2023-01-23T22:10:12.064Z,102979.47
2023-01-23T22:12:41.552Z,102965.16
2023-01-23T22:15:10.595Z,102954.47
2023-01-23T22:17:38.648Z,102970.69
2023-01-23T22:20:07.826Z,102971.63
2023-01-23T22:22:35.738Z,102960.97
2023-01-23T22:25:03.870Z,102952.69
2023-01-23T22:27:31.850Z,102952.69
2023-01-23T22:30:01.233Z,102956.28
2023-01-23T22:32:29.345Z,102944.41
2023-01-23T22:34:57.302Z,102949.69
2023-01-23T22:37:25.275Z,102948.81
2023-01-23T22:39:53.281Z,102946.22
2023-01-23T22:42:21.217Z,102958.75
2023-01-23T22:44:49.129Z,102956.91
2023-01-23T22:47:18.489Z,102952.34
2023-01-23T22:49:46.464Z,102944.31
2023-01-23T22:52:15.002Z,102951.94
2023-01-23T22:54:43.016Z,102947.13
2023-01-23T22:57:11.033Z,102945.22
2023-01-23T22:59:39.232Z,102949.47
2023-01-23T23:02:07.499Z,102955.00
2023-01-23T23:04:36.795Z,102949.88
2023-01-23T23:07:04.897Z,102931.16
2023-01-23T23:09:32.836Z,102957.97
2023-01-23T23:12:00.852Z,102957.59
2023-01-23T23:14:28.865Z,102954.72
2023-01-23T23:16:56.814Z,102960.22
2023-01-23T23:19:24.710Z,102945.84
2023-01-23T23:21:54.124Z,102947.25
2023-01-23T23:24:22.449Z,102944.38
2023-01-23T23:26:51.391Z,102929.09
2023-01-23T23:29:19.396Z,102925.31
2023-01-23T23:31:51.509Z,102914.81
2023-01-23T23:34:19.678Z,102926.56
2023-01-23T23:36:48.010Z,102942.13
2023-01-23T23:39:17.584Z,102930.72
2023-01-23T23:41:45.546Z,102929.25
2023-01-23T23:44:13.544Z,102921.31
2023-01-23T23:46:41.556Z,102922.53
2023-01-23T23:49:09.442Z,102896.00
2023-01-23T23:51:37.526Z,102896.44
2023-01-23T23:54:05.562Z,102895.03
2023-01-23T23:56:34.967Z,102903.72
2023-01-23T23:59:03.077Z,102907.19
